Airport ICAO


22:35 UTC

11°C


An affordable passengers' Moving Map for your aircraft. Made for the iPad and the iPhone
More information here

EGLC City


London UNITED KINGDOM   VFR


METAR EGLC 132220Z AUTO VRB03KT 9999 NCD 11/09 Q1025 0h15min

TAF EGLC 131703Z 1318/1321 19008KT 9999 FEW030 5h32min





NOTAMS

OPEN